1899 Depression NOT_NAMED (1899252N18092)


IBTrACS version v04r00. Visit IBTrACS website for data access.
Please direct all questions to the IBTrACS Q and A forum

Storm track - Intensity - Wind Radii - Intensity Data - Source Data - All data

Summary Information

Storm ID 1899252N18092
Start Sep 9 00Z
Landfall Sep 11 09Z
Max Intensity 30 kt (Sep 9 03Z)
End Sep 16 03Z
ATCF IDs
Track status Best track data.

Storm track plot

Map of storm track

Intensity plots

Map of storm track

Radial wind information

No radial wind information for this storm


Position and Intensity Table

BASIN ISO_TIME_________ NATURE LAT LON DS824 WIND
degrees north degrees east kts
NI 1899-09-09 00:00:00 TS 18.20 92.00 30
NI 03:00:00 TS 18.17 91.80 30
NI 06:00:00 TS 18.12 91.52 30
NI 09:00:00 TS 18.07 91.23 30
NI 12:00:00 TS 18.02 90.94 30
NI 15:00:00 TS 17.97 90.63 30
NI 18:00:00 TS 17.93 90.31 30
NI 21:00:00 TS 17.92 89.98 30
NI 1899-09-10 00:00:00 TS 17.91 89.55 30
NI 03:00:00 TS 17.88 88.93 30
NI 06:00:00 TS 17.83 88.13 30
NI 09:00:00 TS 17.81 87.27 30
NI 12:00:00 TS 17.80 86.47 30
NI 15:00:00 TS 17.79 85.87 30
NI 18:00:00 TS 17.81 85.45 30
NI 21:00:00 TS 17.87 85.09 30
NI 1899-09-11 00:00:00 TS 17.96 84.76 30
NI 03:00:00 TS 18.05 84.40 30
NI 06:00:00 TS 18.15 83.99 30
NI 09:00:00 TS 18.29 83.58 30
NI 12:00:00 TS 18.43 83.18 30
NI 15:00:00 TS 18.55 82.84 30
NI 18:00:00 TS 18.63 82.56 30
NI 21:00:00 TS 18.72 82.32 30
NI 1899-09-12 00:00:00 TS 18.89 82.05 30
NI 03:00:00 TS 19.20 81.66 30
NI 06:00:00 TS 19.63 81.19 30
NI 09:00:00 TS 20.11 80.74 30
NI 12:00:00 TS 20.62 80.31 30
NI 15:00:00 TS 21.14 79.91 30
NI 18:00:00 TS 21.67 79.56 30
NI 21:00:00 TS 22.26 79.28 30
NI 1899-09-13 00:00:00 TS 22.84 79.08 30
NI 03:00:00 TS 23.34 78.95 30
NI 06:00:00 TS 23.79 78.91 30
NI 09:00:00 TS 24.23 78.97 30
NI 12:00:00 TS 24.62 79.11 30
NI 15:00:00 TS 24.96 79.31 30
NI 18:00:00 TS 25.28 79.57 30
NI 21:00:00 TS 25.58 79.91 30
NI 1899-09-14 00:00:00 TS 25.81 80.24 30
NI 03:00:00 TS 25.94 80.51 30
NI 06:00:00 TS 26.01 80.71 30
NI 09:00:00 TS 26.07 80.92 30
NI 12:00:00 TS 26.10 81.11 30
NI 15:00:00 TS 26.10 81.30 30
NI 18:00:00 TS 26.11 81.49 30
NI 21:00:00 TS 26.12 81.66 30
NI 1899-09-15 00:00:00 TS 26.11 81.87 30
NI 03:00:00 TS 26.08 82.19 30
NI 06:00:00 TS 26.03 82.57 30
NI 09:00:00 TS 25.99 82.94 30
NI 12:00:00 TS 25.93 83.31 30
NI 15:00:00 TS 25.88 83.68 30
NI 18:00:00 TS 25.82 84.00 30
NI 21:00:00 TS 25.74 84.32 30
NI 1899-09-16 00:00:00 TS 25.65 84.60 30
NI 03:00:00 NR 25.60 84.80

Source Information

Agency Information
USA
TOKYO
CMA
HKO
NEWDELHI
REUNION
BOM
NADI
WELLINGTON
DS824 n_ind.dat:257:NOT NAMED
TD9636 cons_worldwide_trop_cyclone_18710101-19891231-004:Line=2553
TD9635
NEUMANN
MLC

All available IBTrACS Data

SEASON BASIN SUBBASIN ISO_TIME_________ NATURE LAT LON DIST2LAND LANDFALL IFLAG USA SSHS DS824 LAT DS824 LON DS824 STAGE DS824 WIND TD9636 LAT TD9636 LON TD9636 STAGE STORM SPEED STORM DIR
Year degrees north degrees east km km 1 degrees north degrees east kts degrees north degrees east kts degrees
1899 NI BB 1899-09-09 00:00:00 TS 18.20 92.00 200 200 _________O____ -1 18.20 92.00 TC 30 4 260
1899 NI BB 03:00:00 TS 18.17 91.80 219 219 _________PO___ -1 18.15 91.70 TC 30 18.20 92.00 1 5 260
1899 NI BB 06:00:00 TS 18.12 91.52 252 252 _________OP___ -1 18.10 91.40 TC 30 18.14 91.69 1 6 260
1899 NI BB 09:00:00 TS 18.07 91.23 282 282 _________PP___ -1 18.05 91.11 TC 30 18.09 91.39 1 6 260
1899 NI BB 12:00:00 TS 18.02 90.94 315 315 _________OP___ -1 18.00 90.80 TC 30 18.04 91.09 1 6 260
1899 NI BB 15:00:00 TS 17.97 90.63 337 337 _________PO___ -1 17.94 90.46 TC 30 18.00 90.80 1 6 262
1899 NI BB 18:00:00 TS 17.93 90.31 367 367 _________OP___ -1 17.90 90.10 TC 30 17.97 90.52 1 6 265
1899 NI BB 21:00:00 TS 17.92 89.98 390 390 _________PP___ -1 17.90 89.77 TC 30 17.94 90.20 1 7 268
1899 NI BB 1899-09-10 00:00:00 TS 17.91 89.55 406 360 _________OP___ -1 17.90 89.30 TC 30 17.92 89.81 1 10 267
1899 NI BB 03:00:00 TS 17.88 88.93 352 310 _________PO___ -1 17.85 88.56 TC 30 17.90 89.30 1 14 267
1899 NI BB 06:00:00 TS 17.83 88.13 304 263 _________OP___ -1 17.80 87.70 TC 30 17.87 88.55 1 16 268
1899 NI BB 09:00:00 TS 17.81 87.27 263 229 _________PP___ -1 17.79 86.84 TC 30 17.83 87.70 1 16 269
1899 NI BB 12:00:00 TS 17.80 86.47 229 177 _________OP___ -1 17.80 86.10 TC 30 17.81 86.85 1 13 269
1899 NI BB 15:00:00 TS 17.79 85.87 177 145 _________PO___ -1 17.78 85.63 TC 30 17.80 86.10 1 10 270
1899 NI BB 18:00:00 TS 17.81 85.45 145 107 _________OP___ -1 17.80 85.30 TC 30 17.81 85.61 1 7 276
1899 NI BB 21:00:00 TS 17.87 85.09 107 76 _________PP___ -1 17.88 84.95 TC 30 17.85 85.23 1 7 283
1899 NI BB 1899-09-11 00:00:00 TS 17.96 84.76 76 46 _________OP___ -1 18.00 84.60 TC 30 17.91 84.91 1 7 285
1899 NI BB 03:00:00 TS 18.05 84.40 46 15 _________PO___ -1 18.09 84.21 TC 30 18.00 84.60 1 8 285
1899 NI BB 06:00:00 TS 18.15 83.99 10 0 _________OP___ -1 18.20 83.80 TC 30 18.10 84.19 1 8 287
1899 NI BB 09:00:00 TS 18.29 83.58 0 0 _________PP___ -1 18.35 83.39 TC 30 18.23 83.77 1 8 290
1899 NI BB 12:00:00 TS 18.43 83.18 0 0 _________OP___ -1 18.50 83.00 TC 30 18.36 83.37 1 7 290
1899 NI BB 15:00:00 TS 18.55 82.84 0 0 _________PO___ -1 18.60 82.68 TC 30 18.50 83.00 1 6 289
1899 NI BB 18:00:00 TS 18.63 82.56 0 0 _________OP___ -1 18.70 82.40 TC 30 18.57 82.72 1 5 289
1899 NI BB 21:00:00 TS 18.72 82.32 0 0 _________PP___ -1 18.80 82.18 TC 30 18.64 82.46 1 5 298
1899 NI BB 1899-09-12 00:00:00 TS 18.89 82.05 0 0 _________OP___ -1 19.00 81.90 TC 30 18.77 82.20 1 8 307
1899 NI BB 03:00:00 TS 19.20 81.66 0 0 _________PO___ -1 19.40 81.42 TC 30 19.00 81.90 1 11 312
1899 NI BB 06:00:00 TS 19.63 81.19 0 0 _________OP___ -1 19.90 80.90 TC 30 19.36 81.47 1 13 316
1899 NI BB 09:00:00 TS 20.11 80.74 0 0 _________PP___ -1 20.39 80.48 TC 30 19.82 81.00 1 13 320
1899 NI BB 12:00:00 TS 20.62 80.31 0 0 _________OP___ -1 20.90 80.10 TC 30 20.35 80.53 1 13 323
1899 NI BB 15:00:00 TS 21.14 79.91 0 0 _________PO___ -1 21.38 79.72 TC 30 20.90 80.10 1 13 326
1899 NI BB 18:00:00 TS 21.67 79.56 0 0 _________OP___ -1 21.90 79.40 TC 30 21.45 79.72 1 13 332
1899 NI BB 21:00:00 TS 22.26 79.28 0 0 _________PP___ -1 22.51 79.15 TC 30 22.01 79.40 1 13 339
1899 NI BB 1899-09-13 00:00:00 TS 22.84 79.08 0 0 _________OP___ -1 23.10 79.00 TC 30 22.57 79.15 1 11 344
1899 NI BB 03:00:00 TS 23.34 78.95 0 0 _________PO___ -1 23.58 78.90 TC 30 23.10 79.00 1 10 351
1899 NI BB 06:00:00 TS 23.79 78.91 0 0 _________OP___ -1 24.00 78.90 TC 30 23.58 78.91 1 9 1
1899 NI BB 09:00:00 TS 24.23 78.97 0 0 _________PP___ -1 24.42 79.00 TC 30 24.03 78.93 1 9 13
1899 NI BB 12:00:00 TS 24.62 79.11 0 0 _________OP___ -1 24.80 79.20 TC 30 24.44 79.02 1 8 23
1899 NI BB 15:00:00 TS 24.96 79.31 0 0 _________PO___ -1 25.12 79.42 TC 30 24.80 79.20 1 8 32
1899 NI BB 18:00:00 TS 25.28 79.57 0 0 _________OP___ -1 25.40 79.70 TC 30 25.16 79.44 1 8 41
1899 NI BB 21:00:00 TS 25.58 79.91 0 0 _________PP___ -1 25.69 80.06 TC 30 25.46 79.75 1 8 49
1899 NI BB 1899-09-14 00:00:00 TS 25.81 80.24 0 0 _________OP___ -1 25.90 80.40 TC 30 25.71 80.09 1 7 56
1899 NI BB 03:00:00 TS 25.94 80.51 0 0 _________PO___ -1 25.98 80.62 TC 30 25.90 80.40 1 5 64
1899 NI BB 06:00:00 TS 26.01 80.71 0 0 _________OP___ -1 26.00 80.80 TC 30 26.02 80.63 1 4 70
1899 NI BB 09:00:00 TS 26.07 80.92 0 0 _________PP___ -1 26.06 81.00 TC 30 26.08 80.83 1 4 76
1899 NI BB 12:00:00 TS 26.10 81.11 0 0 _________OP___ -1 26.10 81.20 TC 30 26.10 81.02 1 3 84
1899 NI BB 15:00:00 TS 26.10 81.30 0 0 _________PO___ -1 26.11 81.40 TC 30 26.10 81.20 1 3 88
1899 NI BB 18:00:00 TS 26.11 81.49 0 0 _________OP___ -1 26.10 81.60 TC 30 26.12 81.37 1 3 87
1899 NI BB 21:00:00 TS 26.12 81.66 0 0 _________PP___ -1 26.11 81.77 TC 30 26.13 81.55 1 3 90
1899 NI BB 1899-09-15 00:00:00 TS 26.11 81.87 0 0 _________OP___ -1 26.10 82.00 TC 30 26.12 81.75 1 5 95
1899 NI BB 03:00:00 TS 26.08 82.19 0 0 _________PO___ -1 26.06 82.38 TC 30 26.10 82.00 1 6 97
1899 NI BB 06:00:00 TS 26.03 82.57 0 0 _________OP___ -1 26.00 82.80 TC 30 26.07 82.33 1 7 98
1899 NI BB 09:00:00 TS 25.99 82.94 0 0 _________PP___ -1 25.95 83.16 TC 30 26.02 82.71 1 7 99
1899 NI BB 12:00:00 TS 25.93 83.31 0 0 _________OP___ -1 25.90 83.50 TC 30 25.97 83.11 1 7 99
1899 NI BB 15:00:00 TS 25.88 83.68 0 0 _________PO___ -1 25.86 83.86 TC 30 25.90 83.50 1 6 100
1899 NI BB 18:00:00 TS 25.82 84.00 0 0 _________OP___ -1 25.80 84.20 TC 30 25.83 83.86 1 6 104
1899 NI BB 21:00:00 TS 25.74 84.32 0 0 _________PP___ -1 25.71 84.51 TC 30 25.75 84.19 1 6 107
1899 NI BB 1899-09-16 00:00:00 TS 25.65 84.60 0 0 _________OP___ -1 25.60 84.80 TC 30 25.68 84.50 1 5 107
1899 NI BB 03:00:00 NR 25.60 84.80 0 __________O___ -1 TC 25.60 84.80 1 4 106